Alpine Maya — VRGM6 — position and weather

sailwx.info

Track history (hours):
 
Tides and Currents Weather Stations Pressure Air Temp Water Temp Dewpoint Dewpoint Depression Visibility Wind Speed Wind Dir Waves Ship Positions

Alpine Maya

Last reported at 2018-Sep-28 09:31 UTC. Time now 2018-Nov-16 16:04 UTC.
Position N 27°35' W 015°16'.
Warning: this ship's position is 49 days out of date.

Length 183 m; draft 11 m.

Type: Tanker. MMSI: 477733800.

Date/timePositionNaut miles runAvg speedWind from/ knotsBaromVisibWave heightAir tempDewpointWater temp
2018-Sep-28 09:31N 27°35' W 015°16'113.1
2018-Sep-28 09:26N 27°36' W 015°16'513.4
2018-Sep-28 09:02N 27°40' W 015°12'013.7
2018-Sep-28 09:00N 27°40' W 015°12'713.9
2018-Sep-28 08:30N 27°47' W 015°09'613.9
2018-Sep-28 08:03N 27°53' W 015°07'113.9
2018-Sep-28 08:00N 27°53' W 015°06'713.8
2018-Sep-28 07:30N 27°60' W 015°04'613.7
2018-Sep-28 07:03N 28°06' W 015°01'113.5
2018-Sep-28 07:00N 28°06' W 015°01'713.4
2018-Sep-28 06:30N 28°13' W 014°59'613.7
2018-Sep-28 06:03N 28°19' W 014°56'113.6
2018-Sep-28 06:00N 28°19' W 014°56'713.3
2018-Sep-28 05:30N 28°25' W 014°54'613.2
2018-Sep-28 05:03N 28°31' W 014°51'113.3
2018-Sep-28 05:00N 28°31' W 014°51'713.3
2018-Sep-28 04:30N 28°37' W 014°47'613.4
2018-Sep-28 04:04N 28°43' W 014°45'113.4
2018-Sep-28 04:00N 28°44' W 014°44'713.3
2018-Sep-28 03:27N 28°50' W 014°41'712.9
2018-Sep-28 02:56N 28°57' W 014°38'612.7
2018-Sep-28 02:30N 29°02' W 014°36'612.7
2018-Sep-28 02:03N 29°07' W 014°34'112.9
2018-Sep-28 01:58N 29°08' W 014°33'612.7
2018-Sep-28 01:30N 29°14' W 014°31'612.9
2018-Sep-28 01:01N 29°19' W 014°29'013.0
2018-Sep-28 01:01N 29°20' W 014°28'713.1
2018-Sep-28 00:31N 29°26' W 014°26'612.9
2018-Sep-28 00:03N 29°31' W 014°23'010.7
2018-Sep-28 00:01N 29°32' W 014°23'611.8
2018-Sep-27 23:28N 29°38' W 014°21'512.8
2018-Sep-27 23:03N 29°43' W 014°18'112.9
2018-Sep-27 23:00N 29°43' W 014°18'712.9
2018-Sep-27 22:28N 29°50' W 014°15'613.3
2018-Sep-27 22:01N 29°55' W 014°13'013.4
2018-Sep-27 22:01N 29°55' W 014°13'713.4
2018-Sep-27 21:29N 30°02' W 014°10'613.4
2018-Sep-27 21:03N 30°08' W 014°08'113.4
2018-Sep-27 21:00N 30°08' W 014°08'713.5
2018-Sep-27 20:29N 30°15' W 014°05'1713.2
2018-Sep-27 19:13N 30°30' W 013°58'813.0
2018-Sep-27 18:38N 30°37' W 013°55'213.0
2018-Sep-27 18:27N 30°39' W 013°53'613.4
2018-Sep-27 18:00N 30°43' W 013°48'713.6
2018-Sep-27 17:30N 30°49' W 013°45'2413.4
2018-Sep-27 15:45N 31°11' W 013°34'313.3
2018-Sep-27 15:30N 31°14' W 013°32'713.1
2018-Sep-27 14:56N 31°21' W 013°29'913.3
2018-Sep-27 14:13N 31°30' W 013°25'413.2
2018-Sep-27 13:55N 31°33' W 013°23'513.1
2018-Sep-27 13:30N 31°38' W 013°21'2212.9
2018-Sep-27 11:49N 31°59' W 013°11'412.8
2018-Sep-27 11:28N 32°03' W 013°09'512.7
2018-Sep-27 11:03N 32°08' W 013°06'112.9
2018-Sep-27 11:00N 32°08' W 013°06'713.0
2018-Sep-27 10:30N 32°14' W 013°03'613.2
2018-Sep-27 10:04N 32°20' W 013°01'113.1
2018-Sep-27 10:01N 32°20' W 013°00'1013.0
2018-Sep-27 09:15N 32°30' W 012°57'413.2
2018-Sep-27 08:55N 32°34' W 012°57'912.5
2018-Sep-27 08:12N 32°43' W 012°53'213.1
2018-Sep-27 08:02N 32°44' W 012°51'013.2
2018-Sep-27 08:00N 32°44' W 012°51'712.9
2018-Sep-27 07:29N 32°50' W 012°47'613.2
2018-Sep-27 07:03N 32°55' W 012°44'113.2
2018-Sep-27 06:59N 32°56' W 012°44'713.3
2018-Sep-27 06:28N 33°02' W 012°41'713.1
2018-Sep-27 05:57N 33°09' W 012°40'713.2
2018-Sep-27 05:27N 33°16' W 012°40'513.2
2018-Sep-27 05:03N 33°21' W 012°40'113.3
2018-Sep-27 05:01N 33°22' W 012°40'813.1
2018-Sep-27 04:22N 33°30' W 012°40'412.9
2018-Sep-27 04:02N 33°34' W 012°40'013.0
2018-Sep-27 04:00N 33°35' W 012°40'713.0
2018-Sep-27 03:29N 33°41' W 012°40'612.8
2018-Sep-27 03:03N 33°47' W 012°40'112.8
2018-Sep-27 02:58N 33°48' W 012°40'812.9
2018-Sep-27 02:22N 33°56' W 012°40'412.9
2018-Sep-27 02:02N 34°00' W 012°40'112.9
2018-Sep-27 01:59N 34°01' W 012°40'613.1
2018-Sep-27 01:30N 34°07' W 012°40'1813.1
2018-Sep-27 00:09N 34°25' W 012°40'113.1
2018-Sep-27 00:04N 34°26' W 012°39'113.2
2018-Sep-27 00:00N 34°27' W 012°39'913.1
2018-Sep-26 23:17N 34°36' W 012°40'712.9
2018-Sep-26 22:46N 34°43' W 012°40'312.9
2018-Sep-26 22:30N 34°46' W 012°40'613.0
2018-Sep-26 22:02N 34°52' W 012°40'113.0
2018-Sep-26 21:59N 34°53' W 012°40'1312.8
2018-Sep-26 20:59N 35°06' W 012°40'613.1
2018-Sep-26 20:30N 35°12' W 012°40'612.8
2018-Sep-26 20:03N 35°18' W 012°40'012.4
2018-Sep-26 20:00N 35°18' W 012°40'812.4
2018-Sep-26 19:22N 35°26' W 012°41'412.1
2018-Sep-26 19:04N 35°30' W 012°41'112.2
2018-Sep-26 19:01N 35°30' W 012°41'612.3
2018-Sep-26 18:30N 35°37' W 012°42'612.3
2018-Sep-26 18:03N 35°42' W 012°42'112.2
2018-Sep-26 18:00N 35°43' W 012°42'612.4
2018-Sep-26 17:29N 35°49' W 012°43'512.5
2018-Sep-26 17:03N 35°55' W 012°43'112.4
2018-Sep-26 17:00N 35°55' W 012°43'612.4
2018-Sep-26 16:30N 36°01' W 012°42'612.4
2018-Sep-26 16:03N 36°07' W 012°42'112.5
2018-Sep-26 16:00N 36°08' W 012°42'912.6
2018-Sep-26 15:19N 36°16' W 012°41'312.7
2018-Sep-26 15:03N 36°20' W 012°41'112.8
2018-Sep-26 15:01N 36°20' W 012°41'1312.2
2018-Sep-26 13:59N 36°33' W 012°41'612.5
2018-Sep-26 13:30N 36°39' W 012°41'512.4
2018-Sep-26 13:03N 36°44' W 012°40'112.5
2018-Sep-26 12:59N 36°45' W 012°40'612.4
2018-Sep-26 12:29N 36°51' W 012°40'8712.6
2018-Sep-26 05:33N 38°18' W 012°40'112.6
2018-Sep-26 05:30N 38°19' W 012°40'612.4
2018-Sep-26 05:03N 38°25' W 012°40'1112.5
2018-Sep-26 04:09N 38°36' W 012°40'112.3
2018-Sep-26 04:04N 38°37' W 012°40'112.2
2018-Sep-26 04:00N 38°38' W 012°40'3012.4
2018-Sep-26 01:35N 39°08' W 012°40'112.2
2018-Sep-26 01:30N 39°09' W 012°40'512.2
2018-Sep-26 01:03N 39°14' W 012°40'112.4
2018-Sep-26 01:00N 39°15' W 012°40'612.6
2018-Sep-26 00:30N 39°21' W 012°41'  
2018-Sep-23 07:19N 49°45' W 003°37'411.7
2018-Sep-23 06:58N 49°46' W 003°31'511.2
2018-Sep-23 06:30N 49°48' W 003°24'511.0
2018-Sep-23 06:03N 49°51' W 003°17'010.9
2018-Sep-23 06:00N 49°52' W 003°17'510.7
2018-Sep-23 05:30N 49°55' W 003°10'510.6
2018-Sep-23 04:59N 49°57' W 003°02'510.9
2018-Sep-23 04:30N 49°59' W 002°55'511.1
2018-Sep-23 04:03N 50°01' W 002°47'011.4
2018-Sep-23 04:00N 50°01' W 002°47'611.8
2018-Sep-23 03:30N 50°03' W 002°38'10913.1
2018-Sep-22 19:09N 50°31' E 000°07'310.9
2018-Sep-22 18:52N 50°32' E 000°12'411.0
2018-Sep-22 18:30N 50°33' E 000°18'511.4
2018-Sep-22 18:03N 50°35' E 000°25'111.7
2018-Sep-22 18:01N 50°35' E 000°26'612.0
2018-Sep-22 17:30N 50°38' E 000°34'612.4
2018-Sep-22 17:03N 50°41' E 000°41'112.6
2018-Sep-22 17:00N 50°42' E 000°42'612.9
2018-Sep-22 16:30N 50°46' E 000°50'613.2
2018-Sep-22 16:03N 50°49' E 000°58'113.2
2018-Sep-22 16:00N 50°49' E 000°59'713.2
2018-Sep-22 15:31N 50°54' E 001°07'613.1
2018-Sep-22 15:03N 50°57' E 001°14'113.1
2018-Sep-22 15:01N 50°58' E 001°15'612.7
2018-Sep-22 14:31N 51°02' E 001°22'612.1
2018-Sep-22 14:01N 51°06' E 001°30'611.4
2018-Sep-22 13:30N 51°09' E 001°37'511.0
2018-Sep-22 13:03N 51°12' E 001°43'111.1
2018-Sep-22 13:00N 51°13' E 001°44'510.5
2018-Sep-22 12:31N 51°17' E 001°49'510.3
2018-Sep-22 12:03N 51°21' E 001°53'110.4
2018-Sep-22 12:01N 51°21' E 001°53'510.4
2018-Sep-22 11:31N 51°26' E 001°57'510.8
2018-Sep-22 11:03N 51°30' E 002°01'111.1
2018-Sep-22 11:00N 51°31' E 002°01'611.2
2018-Sep-22 10:30N 51°35' E 002°07'511.2
2018-Sep-22 10:04N 51°39' E 002°13'111.5
2018-Sep-22 10:00N 51°39' E 002°13'611.6
2018-Sep-22 09:27N 51°44' E 002°20'512.1
2018-Sep-22 09:03N 51°47' E 002°26'112.2
2018-Sep-22 09:00N 51°48' E 002°26'4312.4
2018-Sep-22 05:34N 52°21' E 003°10'112.0
2018-Sep-22 05:29N 52°22' E 003°11'510.9
2018-Sep-22 05:02N 52°25' E 003°17'110.7
2018-Sep-22 04:59N 52°25' E 003°18'510.7
2018-Sep-22 04:28N 52°26' E 003°27'410.4
2018-Sep-22 04:03N 52°28' E 003°34'110.1
2018-Sep-22 03:58N 52°28' E 003°35'510.0
2018-Sep-22 03:29N 52°29' E 003°43'4 9.7
2018-Sep-22 03:03N 52°30' E 003°49'1 9.4
2018-Sep-22 02:59N 52°30' E 003°50'4 9.4
2018-Sep-22 02:31N 52°31' E 003°58'4 9.3
2018-Sep-22 02:03N 52°31' E 004°05'0 9.3
2018-Sep-22 02:00N 52°31' E 004°05'4 9.0
2018-Sep-22 01:30N 52°31' E 004°13'4 8.9
2018-Sep-22 01:03N 52°30' E 004°19'0 8.9
2018-Sep-22 01:00N 52°30' E 004°20'4 8.2
2018-Sep-22 00:30N 52°30' E 004°27'1 3.0
2018-Sep-22 00:03N 52°29' E 004°28'0 5.5
2018-Sep-22 00:00N 52°29' E 004°29'4 8.2
2018-Sep-21 23:31N 52°28' E 004°35'1 1.8
2018-Sep-21 23:03N 52°28' E 004°37'0 0.0
2018-Sep-21 23:00N 52°28' E 004°37'0 0.0
2018-Sep-21 22:30N 52°28' E 004°37'2 3.3
2018-Sep-21 22:03N 52°28' E 004°39'0 5.0
2018-Sep-21 22:00N 52°28' E 004°39'3 6.9
2018-Sep-21 21:30N 52°26' E 004°44'2 4.4
2018-Sep-21 21:03N 52°25' E 004°46'0 2.1
2018-Sep-21 20:59N 52°24' E 004°46'0 0.0
2018-Sep-21 20:29N 52°24' E 004°46'0 0.0
2018-Sep-21 20:02N 52°24' E 004°46'0 0.0
2018-Sep-21 19:59N 52°24' E 004°46'0 0.0
2018-Sep-21 19:23N 52°24' E 004°46'0 0.0
2018-Sep-21 19:02N 52°24' E 004°46'0 0.0
2018-Sep-21 18:59N 52°24' E 004°46'0 0.0
2018-Sep-21 18:29N 52°24' E 004°46'0 0.0
2018-Sep-21 18:02N 52°24' E 004°46'0 0.0
2018-Sep-21 17:59N 52°24' E 004°46'0 0.0
2018-Sep-21 17:29N 52°24' E 004°46'0 0.0
2018-Sep-21 17:02N 52°24' E 004°46'0 0.0
2018-Sep-21 16:59N 52°24' E 004°46'0 0.0
2018-Sep-21 16:29N 52°24' E 004°46'0 0.0
2018-Sep-21 16:02N 52°24' E 004°46'0 0.0
2018-Sep-21 15:59N 52°24' E 004°46'0 0.0
2018-Sep-21 15:29N 52°24' E 004°46'0 0.0
2018-Sep-21 15:02N 52°24' E 004°46'0 0.0
2018-Sep-21 14:59N 52°24' E 004°46'0 0.0
2018-Sep-21 13:59N 52°24' E 004°46'0 0.0
2018-Sep-21 13:26N 52°24' E 004°46'0 0.0
2018-Sep-21 13:02N 52°24' E 004°46'0 0.0
2018-Sep-21 12:59N 52°24' E 004°46'0 0.0
2018-Sep-21 12:29N 52°24' E 004°46'0 0.0
2018-Sep-21 12:02N 52°24' E 004°46'0 0.1
2018-Sep-21 11:59N 52°24' E 004°46'0 0.0
2018-Sep-21 11:29N 52°24' E 004°46'0 0.0
2018-Sep-21 11:02N 52°24' E 004°46'0 0.0
2018-Sep-21 10:59N 52°24' E 004°46'0 0.0
2018-Sep-21 10:29N 52°24' E 004°46'0 0.0
2018-Sep-21 10:02N 52°24' E 004°46'0 0.1
2018-Sep-21 09:59N 52°24' E 004°46'0 0.0
2018-Sep-21 09:26N 52°24' E 004°46'0 0.0
2018-Sep-21 09:02N 52°24' E 004°46'0 0.1
2018-Sep-21 08:59N 52°24' E 004°46'0 0.0
2018-Sep-21 08:29N 52°24' E 004°46'0 0.0
2018-Sep-21 08:02N 52°24' E 004°46'0 0.0
2018-Sep-21 07:59N 52°24' E 004°46'0 0.0
2018-Sep-21 07:29N 52°24' E 004°46'0 0.0
2018-Sep-21 07:02N 52°24' E 004°46'0 0.0
2018-Sep-21 06:59N 52°24' E 004°46'0 0.0
2018-Sep-21 06:29N 52°24' E 004°46'0 0.0
2018-Sep-21 06:02N 52°24' E 004°46'0 0.0
2018-Sep-21 05:53N 52°24' E 004°46'0 0.0
2018-Sep-21 05:26N 52°24' E 004°46'0 0.0
2018-Sep-21 05:02N 52°24' E 004°46'0 0.0
2018-Sep-21 04:59N 52°24' E 004°46'0 0.0
2018-Sep-21 04:29N 52°24' E 004°46'0 0.0
2018-Sep-21 04:02N 52°24' E 004°46'0 0.0
2018-Sep-21 03:56N 52°24' E 004°46'0 0.0
2018-Sep-21 03:29N 52°24' E 004°46'0 0.0
2018-Sep-21 03:02N 52°24' E 004°46'0 0.1
2018-Sep-21 02:59N 52°24' E 004°46'0 0.0
2018-Sep-21 02:29N 52°24' E 004°46'0 0.0
2018-Sep-21 02:02N 52°24' E 004°46'0 0.0
2018-Sep-21 01:59N 52°24' E 004°46'0 0.0
2018-Sep-21 01:29N 52°24' E 004°46'0 0.0
2018-Sep-21 00:59N 52°24' E 004°46'0 0.0
2018-Sep-21 00:29N 52°24' E 004°46'0 0.0
2018-Sep-21 00:02N 52°24' E 004°46'0 0.0
2018-Sep-20 23:59N 52°24' E 004°46'0 0.0
2018-Sep-20 23:29N 52°24' E 004°46'0 0.0
2018-Sep-20 23:02N 52°24' E 004°46'0 0.0
2018-Sep-20 22:59N 52°24' E 004°46'0 0.0
2018-Sep-20 22:29N 52°24' E 004°46'0 0.0
2018-Sep-20 22:02N 52°24' E 004°46'0 0.0
2018-Sep-20 21:59N 52°24' E 004°46'0 0.0
2018-Sep-20 21:26N 52°24' E 004°46'0 0.0
2018-Sep-20 21:02N 52°24' E 004°46'0 0.1
2018-Sep-20 20:59N 52°24' E 004°46'0 0.0
2018-Sep-20 20:26N 52°24' E 004°46'0 0.0
2018-Sep-20 20:02N 52°24' E 004°46'0 0.1
2018-Sep-20 19:59N 52°24' E 004°46'0 0.0
2018-Sep-20 19:26N 52°24' E 004°46'0 0.0
2018-Sep-20 19:02N 52°24' E 004°46'0 0.1
2018-Sep-20 18:56N 52°24' E 004°46'0 0.0
2018-Sep-20 18:29N 52°24' E 004°46'0 0.0
2018-Sep-20 18:02N 52°24' E 004°46'0 0.0
2018-Sep-20 17:59N 52°24' E 004°46'0 0.0
2018-Sep-20 17:29N 52°24' E 004°46'0 0.0
2018-Sep-20 17:02N 52°24' E 004°46'0 0.0
2018-Sep-20 16:59N 52°24' E 004°46'0 0.0
2018-Sep-20 16:29N 52°24' E 004°46'0 0.0
2018-Sep-20 15:59N 52°24' E 004°46'0 0.0
2018-Sep-20 15:29N 52°24' E 004°46'0 0.0
2018-Sep-20 15:02N 52°24' E 004°46'0 0.1
2018-Sep-20 14:59N 52°24' E 004°46'0 0.0
2018-Sep-20 14:02N 52°24' E 004°46'0 0.0
2018-Sep-20 13:59N 52°24' E 004°46'0 0.0
2018-Sep-20 13:29N 52°24' E 004°46'0 0.0
2018-Sep-20 13:02N 52°24' E 004°46'0 0.1
2018-Sep-20 12:59N 52°24' E 004°46'0 0.0
2018-Sep-20 12:29N 52°24' E 004°46'0 0.0
2018-Sep-20 12:02N 52°24' E 004°46'0 0.2
2018-Sep-20 11:59N 52°24' E 004°46'0 0.0
2018-Sep-20 11:29N 52°24' E 004°46'0 0.0
2018-Sep-20 11:02N 52°24' E 004°46'0 0.1
2018-Sep-20 10:59N 52°24' E 004°46'0 0.0
2018-Sep-20 10:29N 52°24' E 004°46'0 0.0
2018-Sep-20 10:02N 52°24' E 004°46'0 0.1
2018-Sep-20 09:59N 52°24' E 004°46'0 0.0
2018-Sep-20 09:29N 52°24' E 004°46'0 0.0
2018-Sep-20 09:02N 52°24' E 004°46'0 0.1
2018-Sep-20 08:59N 52°24' E 004°46'0 0.0
2018-Sep-20 08:29N 52°24' E 004°46'0 0.0
2018-Sep-20 08:02N 52°24' E 004°46'0 0.0
2018-Sep-20 07:56N 52°24' E 004°46'0 0.0
2018-Sep-20 07:29N 52°24' E 004°46'0 0.0
2018-Sep-20 06:59N 52°24' E 004°46'0 0.0
2018-Sep-20 06:29N 52°24' E 004°46'0 0.0
2018-Sep-20 06:02N 52°24' E 004°46'0 0.0
2018-Sep-20 05:56N 52°24' E 004°46'0 0.0
2018-Sep-20 05:29N 52°24' E 004°46'0 0.0
2018-Sep-20 05:02N 52°24' E 004°46'0 0.1
2018-Sep-20 04:59N 52°24' E 004°46'0 0.0
2018-Sep-20 04:29N 52°24' E 004°46'0 0.0
2018-Sep-20 04:02N 52°24' E 004°46'0 0.1
2018-Sep-20 03:59N 52°24' E 004°46'0 0.0
2018-Sep-20 03:29N 52°24' E 004°46'0 0.0
2018-Sep-20 03:02N 52°24' E 004°46'0 0.1
2018-Sep-20 02:59N 52°24' E 004°46'0 0.0
2018-Sep-20 02:29N 52°24' E 004°46'0 0.0
2018-Sep-20 02:02N 52°24' E 004°46'0 0.0
2018-Sep-20 01:59N 52°24' E 004°46'0 0.0
2018-Sep-20 01:29N 52°24' E 004°46'0 0.0
2018-Sep-20 01:02N 52°24' E 004°46'0 0.1
2018-Sep-20 00:59N 52°24' E 004°46'0 0.0
2018-Sep-20 00:29N 52°24' E 004°46'0 0.0
2018-Sep-20 00:02N 52°24' E 004°46'0 0.1
2018-Sep-19 23:59N 52°24' E 004°46'0 0.0
2018-Sep-19 23:29N 52°24' E 004°46'0 0.0
2018-Sep-19 23:02N 52°24' E 004°46'0 0.0
2018-Sep-19 22:59N 52°24' E 004°46'0 0.0
2018-Sep-19 22:29N 52°24' E 004°46'0 0.0
2018-Sep-19 22:02N 52°24' E 004°46'0 0.0
2018-Sep-19 21:59N 52°24' E 004°46'0 0.0
2018-Sep-19 21:29N 52°24' E 004°46'0 0.0
2018-Sep-19 20:59N 52°24' E 004°46'0 0.0
2018-Sep-19 20:29N 52°24' E 004°46'0 0.0
2018-Sep-19 20:02N 52°24' E 004°46'0 0.0
2018-Sep-19 19:59N 52°24' E 004°46'0 0.0
2018-Sep-19 19:29N 52°24' E 004°46'0 0.0
2018-Sep-19 19:02N 52°24' E 004°46'0 0.0
2018-Sep-19 18:59N 52°24' E 004°46'0 0.0
2018-Sep-19 18:29N 52°24' E 004°46'0 0.0
2018-Sep-19 18:02N 52°24' E 004°46'0 0.0
2018-Sep-19 17:59N 52°24' E 004°46'0 0.0
2018-Sep-19 17:29N 52°24' E 004°46'0 0.0
2018-Sep-19 17:02N 52°24' E 004°46'0 0.1
2018-Sep-19 16:59N 52°24' E 004°46'0 0.0
2018-Sep-19 16:26N 52°24' E 004°46'0 0.0
2018-Sep-19 16:02N 52°24' E 004°46'0 0.0
2018-Sep-19 15:56N 52°24' E 004°46'0 0.0
2018-Sep-19 15:29N 52°24' E 004°46'0 0.0
2018-Sep-19 15:02N 52°24' E 004°46'0 0.0
2018-Sep-19 14:59N 52°24' E 004°46'0 0.0
2018-Sep-19 14:29N 52°24' E 004°46'0 0.0
2018-Sep-19 13:29N 52°24' E 004°46'0 0.0
2018-Sep-19 13:02N 52°24' E 004°46'0 0.0
2018-Sep-19 12:59N 52°24' E 004°46'0 0.0
2018-Sep-19 12:29N 52°24' E 004°46'0 0.0
2018-Sep-19 12:02N 52°24' E 004°46'0 2.0
2018-Sep-19 11:59N 52°24' E 004°47'0 0.1
2018-Sep-19 11:29N 52°24' E 004°47'0 0.2
2018-Sep-19 11:02N 52°24' E 004°47'0 0.1
2018-Sep-19 10:59N 52°24' E 004°47'0 0.1
2018-Sep-19 10:29N 52°24' E 004°47'0 0.2
2018-Sep-19 10:02N 52°24' E 004°46'0 0.8
2018-Sep-19 09:59N 52°24' E 004°46'0 0.0
2018-Sep-19 09:29N 52°24' E 004°46'0 0.0
2018-Sep-19 09:02N 52°24' E 004°46'0 0.0
2018-Sep-19 08:59N 52°24' E 004°46'0 0.0
2018-Sep-19 08:29N 52°24' E 004°46'0 0.0
2018-Sep-19 08:02N 52°24' E 004°46'0 0.0
2018-Sep-19 07:59N 52°24' E 004°46'0 0.0
2018-Sep-19 07:29N 52°24' E 004°46'0 0.0
2018-Sep-19 07:02N 52°24' E 004°46'0 0.0
2018-Sep-19 06:59N 52°24' E 004°46'0 0.0
2018-Sep-19 06:29N 52°24' E 004°46'0 0.0
2018-Sep-19 05:59N 52°24' E 004°46'0 0.0
2018-Sep-19 05:29N 52°24' E 004°46'0 0.0
2018-Sep-19 05:02N 52°24' E 004°46'0 0.0
2018-Sep-19 04:56N 52°24' E 004°46'0 0.0
2018-Sep-19 04:29N 52°24' E 004°46'0 0.0
2018-Sep-19 04:02N 52°24' E 004°46'0 0.1
2018-Sep-19 03:59N 52°24' E 004°46'0 0.0
2018-Sep-19 03:29N 52°24' E 004°46'0 0.0
2018-Sep-19 03:02N 52°24' E 004°46'0 0.0
2018-Sep-19 02:59N 52°24' E 004°46'0 0.0
2018-Sep-19 02:26N 52°24' E 004°46'0 0.0
2018-Sep-19 01:59N 52°24' E 004°46'0 0.0
2018-Sep-19 01:29N 52°24' E 004°46'0 0.0
2018-Sep-19 01:02N 52°24' E 004°46'0 0.1
2018-Sep-19 00:59N 52°24' E 004°46'0 0.0
2018-Sep-19 00:29N 52°24' E 004°46'0 0.0
2018-Sep-19 00:02N 52°24' E 004°46'0 0.1
2018-Sep-18 23:56N 52°24' E 004°46'0 0.0
2018-Sep-18 23:29N 52°24' E 004°46'0 0.0
2018-Sep-18 23:02N 52°24' E 004°46'0 0.0
2018-Sep-18 22:59N 52°24' E 004°46'0 0.0
2018-Sep-18 22:29N 52°24' E 004°46'0 0.0
2018-Sep-18 22:02N 52°24' E 004°46'0 0.1
2018-Sep-18 21:59N 52°24' E 004°46'0 0.0
2018-Sep-18 21:29N 52°24' E 004°46'0 0.0
2018-Sep-18 21:02N 52°24' E 004°46'0 0.0
2018-Sep-18 20:59N 52°24' E 004°46'0 0.0
2018-Sep-18 20:29N 52°24' E 004°46'0 0.0
2018-Sep-18 20:02N 52°24' E 004°46'0 0.0
2018-Sep-18 19:59N 52°24' E 004°46'0 0.0
2018-Sep-18 19:29N 52°24' E 004°46'0 0.0
2018-Sep-18 19:02N 52°24' E 004°46'0 0.0
2018-Sep-18 18:59N 52°24' E 004°46'0 0.0
2018-Sep-18 18:29N 52°24' E 004°46'0 0.0
2018-Sep-18 18:02N 52°24' E 004°46'0 0.0
2018-Sep-18 17:59N 52°24' E 004°46'0 0.0
2018-Sep-18 17:29N 52°24' E 004°46'0 0.0
2018-Sep-18 17:02N 52°24' E 004°46'0 0.0
2018-Sep-18 16:59N 52°24' E 004°46'0 0.0
2018-Sep-18 16:29N 52°24' E 004°46'0 0.0
2018-Sep-18 16:02N 52°24' E 004°46'0 0.0
2018-Sep-18 15:59N 52°24' E 004°46'0 0.0
2018-Sep-18 15:29N 52°24' E 004°46'0 0.0
2018-Sep-18 15:02N 52°24' E 004°46'0 0.0
2018-Sep-18 14:59N 52°24' E 004°46'0 0.0
2018-Sep-18 14:02N 52°24' E 004°46'0 0.0
2018-Sep-18 13:56N 52°24' E 004°46'0 0.0
2018-Sep-18 13:29N 52°24' E 004°46'0 0.0
2018-Sep-18 12:56N 52°24' E 004°46'0 0.0
2018-Sep-18 12:29N 52°24' E 004°46'0 0.0
2018-Sep-18 12:02N 52°24' E 004°46'0 0.1
2018-Sep-18 11:59N 52°24' E 004°46'0 0.0
2018-Sep-18 11:26N 52°24' E 004°46'0 0.0
2018-Sep-18 10:59N 52°24' E 004°46'0 0.0
2018-Sep-18 10:26N 52°24' E 004°46'0 0.0
2018-Sep-18 10:02N 52°24' E 004°46'0 0.1
2018-Sep-18 09:59N 52°24' E 004°46'  
Track history (hours):
 
Tides and Currents Weather Stations Pressure Air Temp Water Temp Dewpoint Dewpoint Depression Visibility Wind Speed Wind Dir Waves Ship Positions

Alpine Maya

Last reported at 2018-Sep-28 09:31 UTC. Time now 2018-Nov-16 16:04 UTC.
Position N 27°35' W 015°16'.
Warning: this ship's position is 49 days out of date.

Length 183 m; draft 11 m.

Type: Tanker. MMSI: 477733800.

Date/timePositionNaut miles runAvg speedWind from/ knotsBaromVisibWave heightAir tempDewpointWater temp
2018-Sep-28 09:31N 27°35' W 015°16'113.1
2018-Sep-28 09:26N 27°36' W 015°16'513.4
2018-Sep-28 09:02N 27°40' W 015°12'013.7
2018-Sep-28 09:00N 27°40' W 015°12'713.9
2018-Sep-28 08:30N 27°47' W 015°09'613.9
2018-Sep-28 08:03N 27°53' W 015°07'113.9
2018-Sep-28 08:00N 27°53' W 015°06'713.8
2018-Sep-28 07:30N 27°60' W 015°04'613.7
2018-Sep-28 07:03N 28°06' W 015°01'113.5
2018-Sep-28 07:00N 28°06' W 015°01'713.4
2018-Sep-28 06:30N 28°13' W 014°59'613.7
2018-Sep-28 06:03N 28°19' W 014°56'113.6
2018-Sep-28 06:00N 28°19' W 014°56'713.3
2018-Sep-28 05:30N 28°25' W 014°54'613.2
2018-Sep-28 05:03N 28°31' W 014°51'113.3
2018-Sep-28 05:00N 28°31' W 014°51'713.3
2018-Sep-28 04:30N 28°37' W 014°47'613.4
2018-Sep-28 04:04N 28°43' W 014°45'113.4
2018-Sep-28 04:00N 28°44' W 014°44'713.3
2018-Sep-28 03:27N 28°50' W 014°41'712.9
2018-Sep-28 02:56N 28°57' W 014°38'612.7
2018-Sep-28 02:30N 29°02' W 014°36'612.7
2018-Sep-28 02:03N 29°07' W 014°34'112.9
2018-Sep-28 01:58N 29°08' W 014°33'612.7
2018-Sep-28 01:30N 29°14' W 014°31'612.9
2018-Sep-28 01:01N 29°19' W 014°29'013.0
2018-Sep-28 01:01N 29°20' W 014°28'713.1
2018-Sep-28 00:31N 29°26' W 014°26'612.9
2018-Sep-28 00:03N 29°31' W 014°23'010.7
2018-Sep-28 00:01N 29°32' W 014°23'611.8
2018-Sep-27 23:28N 29°38' W 014°21'512.8
2018-Sep-27 23:03N 29°43' W 014°18'112.9
2018-Sep-27 23:00N 29°43' W 014°18'712.9
2018-Sep-27 22:28N 29°50' W 014°15'613.3
2018-Sep-27 22:01N 29°55' W 014°13'013.4
2018-Sep-27 22:01N 29°55' W 014°13'713.4
2018-Sep-27 21:29N 30°02' W 014°10'613.4
2018-Sep-27 21:03N 30°08' W 014°08'113.4
2018-Sep-27 21:00N 30°08' W 014°08'713.5
2018-Sep-27 20:29N 30°15' W 014°05'1713.2
2018-Sep-27 19:13N 30°30' W 013°58'813.0
2018-Sep-27 18:38N 30°37' W 013°55'213.0
2018-Sep-27 18:27N 30°39' W 013°53'613.4
2018-Sep-27 18:00N 30°43' W 013°48'713.6
2018-Sep-27 17:30N 30°49' W 013°45'2413.4
2018-Sep-27 15:45N 31°11' W 013°34'313.3
2018-Sep-27 15:30N 31°14' W 013°32'713.1
2018-Sep-27 14:56N 31°21' W 013°29'913.3
2018-Sep-27 14:13N 31°30' W 013°25'413.2
2018-Sep-27 13:55N 31°33' W 013°23'513.1
2018-Sep-27 13:30N 31°38' W 013°21'2212.9
2018-Sep-27 11:49N 31°59' W 013°11'412.8
2018-Sep-27 11:28N 32°03' W 013°09'512.7
2018-Sep-27 11:03N 32°08' W 013°06'112.9
2018-Sep-27 11:00N 32°08' W 013°06'713.0
2018-Sep-27 10:30N 32°14' W 013°03'613.2
2018-Sep-27 10:04N 32°20' W 013°01'113.1
2018-Sep-27 10:01N 32°20' W 013°00'1013.0
2018-Sep-27 09:15N 32°30' W 012°57'413.2
2018-Sep-27 08:55N 32°34' W 012°57'912.5
2018-Sep-27 08:12N 32°43' W 012°53'213.1
2018-Sep-27 08:02N 32°44' W 012°51'013.2
2018-Sep-27 08:00N 32°44' W 012°51'712.9
2018-Sep-27 07:29N 32°50' W 012°47'613.2
2018-Sep-27 07:03N 32°55' W 012°44'113.2
2018-Sep-27 06:59N 32°56' W 012°44'713.3
2018-Sep-27 06:28N 33°02' W 012°41'713.1
2018-Sep-27 05:57N 33°09' W 012°40'713.2
2018-Sep-27 05:27N 33°16' W 012°40'513.2
2018-Sep-27 05:03N 33°21' W 012°40'113.3
2018-Sep-27 05:01N 33°22' W 012°40'813.1
2018-Sep-27 04:22N 33°30' W 012°40'412.9
2018-Sep-27 04:02N 33°34' W 012°40'013.0
2018-Sep-27 04:00N 33°35' W 012°40'713.0
2018-Sep-27 03:29N 33°41' W 012°40'612.8
2018-Sep-27 03:03N 33°47' W 012°40'112.8
2018-Sep-27 02:58N 33°48' W 012°40'812.9
2018-Sep-27 02:22N 33°56' W 012°40'412.9
2018-Sep-27 02:02N 34°00' W 012°40'112.9
2018-Sep-27 01:59N 34°01' W 012°40'613.1
2018-Sep-27 01:30N 34°07' W 012°40'1813.1
2018-Sep-27 00:09N 34°25' W 012°40'113.1
2018-Sep-27 00:04N 34°26' W 012°39'113.2
2018-Sep-27 00:00N 34°27' W 012°39'913.1
2018-Sep-26 23:17N 34°36' W 012°40'712.9
2018-Sep-26 22:46N 34°43' W 012°40'312.9
2018-Sep-26 22:30N 34°46' W 012°40'613.0
2018-Sep-26 22:02N 34°52' W 012°40'113.0
2018-Sep-26 21:59N 34°53' W 012°40'1312.8
2018-Sep-26 20:59N 35°06' W 012°40'613.1
2018-Sep-26 20:30N 35°12' W 012°40'612.8
2018-Sep-26 20:03N 35°18' W 012°40'012.4
2018-Sep-26 20:00N 35°18' W 012°40'812.4
2018-Sep-26 19:22N 35°26' W 012°41'412.1
2018-Sep-26 19:04N 35°30' W 012°41'112.2
2018-Sep-26 19:01N 35°30' W 012°41'612.3
2018-Sep-26 18:30N 35°37' W 012°42'612.3
2018-Sep-26 18:03N 35°42' W 012°42'112.2
2018-Sep-26 18:00N 35°43' W 012°42'612.4
2018-Sep-26 17:29N 35°49' W 012°43'512.5
2018-Sep-26 17:03N 35°55' W 012°43'112.4
2018-Sep-26 17:00N 35°55' W 012°43'612.4
2018-Sep-26 16:30N 36°01' W 012°42'612.4
2018-Sep-26 16:03N 36°07' W 012°42'112.5
2018-Sep-26 16:00N 36°08' W 012°42'912.6
2018-Sep-26 15:19N 36°16' W 012°41'312.7
2018-Sep-26 15:03N 36°20' W 012°41'112.8
2018-Sep-26 15:01N 36°20' W 012°41'1312.2
2018-Sep-26 13:59N 36°33' W 012°41'612.5
2018-Sep-26 13:30N 36°39' W 012°41'512.4
2018-Sep-26 13:03N 36°44' W 012°40'112.5
2018-Sep-26 12:59N 36°45' W 012°40'612.4
2018-Sep-26 12:29N 36°51' W 012°40'8712.6
2018-Sep-26 05:33N 38°18' W 012°40'112.6
2018-Sep-26 05:30N 38°19' W 012°40'612.4
2018-Sep-26 05:03N 38°25' W 012°40'1112.5
2018-Sep-26 04:09N 38°36' W 012°40'112.3
2018-Sep-26 04:04N 38°37' W 012°40'112.2
2018-Sep-26 04:00N 38°38' W 012°40'3012.4
2018-Sep-26 01:35N 39°08' W 012°40'112.2
2018-Sep-26 01:30N 39°09' W 012°40'512.2
2018-Sep-26 01:03N 39°14' W 012°40'112.4
2018-Sep-26 01:00N 39°15' W 012°40'612.6
2018-Sep-26 00:30N 39°21' W 012°41'  
2018-Sep-23 07:19N 49°45' W 003°37'411.7
2018-Sep-23 06:58N 49°46' W 003°31'511.2
2018-Sep-23 06:30N 49°48' W 003°24'511.0
2018-Sep-23 06:03N 49°51' W 003°17'010.9
2018-Sep-23 06:00N 49°52' W 003°17'510.7
2018-Sep-23 05:30N 49°55' W 003°10'510.6
2018-Sep-23 04:59N 49°57' W 003°02'510.9
2018-Sep-23 04:30N 49°59' W 002°55'511.1
2018-Sep-23 04:03N 50°01' W 002°47'011.4
2018-Sep-23 04:00N 50°01' W 002°47'611.8
2018-Sep-23 03:30N 50°03' W 002°38'10913.1
2018-Sep-22 19:09N 50°31' E 000°07'310.9
2018-Sep-22 18:52N 50°32' E 000°12'411.0
2018-Sep-22 18:30N 50°33' E 000°18'511.4
2018-Sep-22 18:03N 50°35' E 000°25'111.7
2018-Sep-22 18:01N 50°35' E 000°26'612.0
2018-Sep-22 17:30N 50°38' E 000°34'612.4
2018-Sep-22 17:03N 50°41' E 000°41'112.6
2018-Sep-22 17:00N 50°42' E 000°42'612.9
2018-Sep-22 16:30N 50°46' E 000°50'613.2
2018-Sep-22 16:03N 50°49' E 000°58'113.2
2018-Sep-22 16:00N 50°49' E 000°59'713.2
2018-Sep-22 15:31N 50°54' E 001°07'613.1
2018-Sep-22 15:03N 50°57' E 001°14'113.1
2018-Sep-22 15:01N 50°58' E 001°15'612.7
2018-Sep-22 14:31N 51°02' E 001°22'612.1
2018-Sep-22 14:01N 51°06' E 001°30'611.4
2018-Sep-22 13:30N 51°09' E 001°37'511.0
2018-Sep-22 13:03N 51°12' E 001°43'111.1
2018-Sep-22 13:00N 51°13' E 001°44'510.5
2018-Sep-22 12:31N 51°17' E 001°49'510.3
2018-Sep-22 12:03N 51°21' E 001°53'110.4
2018-Sep-22 12:01N 51°21' E 001°53'510.4
2018-Sep-22 11:31N 51°26' E 001°57'510.8
2018-Sep-22 11:03N 51°30' E 002°01'111.1
2018-Sep-22 11:00N 51°31' E 002°01'611.2
2018-Sep-22 10:30N 51°35' E 002°07'511.2
2018-Sep-22 10:04N 51°39' E 002°13'111.5
2018-Sep-22 10:00N 51°39' E 002°13'611.6
2018-Sep-22 09:27N 51°44' E 002°20'512.1
2018-Sep-22 09:03N 51°47' E 002°26'112.2
2018-Sep-22 09:00N 51°48' E 002°26'4312.4
2018-Sep-22 05:34N 52°21' E 003°10'112.0
2018-Sep-22 05:29N 52°22' E 003°11'510.9
2018-Sep-22 05:02N 52°25' E 003°17'110.7
2018-Sep-22 04:59N 52°25' E 003°18'510.7
2018-Sep-22 04:28N 52°26' E 003°27'410.4
2018-Sep-22 04:03N 52°28' E 003°34'110.1
2018-Sep-22 03:58N 52°28' E 003°35'510.0
2018-Sep-22 03:29N 52°29' E 003°43'4 9.7
2018-Sep-22 03:03N 52°30' E 003°49'1 9.4
2018-Sep-22 02:59N 52°30' E 003°50'4 9.4
2018-Sep-22 02:31N 52°31' E 003°58'4 9.3
2018-Sep-22 02:03N 52°31' E 004°05'0 9.3
2018-Sep-22 02:00N 52°31' E 004°05'4 9.0
2018-Sep-22 01:30N 52°31' E 004°13'4 8.9
2018-Sep-22 01:03N 52°30' E 004°19'0 8.9
2018-Sep-22 01:00N 52°30' E 004°20'4 8.2
2018-Sep-22 00:30N 52°30' E 004°27'1 3.0
2018-Sep-22 00:03N 52°29' E 004°28'0 5.5
2018-Sep-22 00:00N 52°29' E 004°29'4 8.2
2018-Sep-21 23:31N 52°28' E 004°35'1 1.8
2018-Sep-21 23:03N 52°28' E 004°37'0 0.0
2018-Sep-21 23:00N 52°28' E 004°37'0 0.0
2018-Sep-21 22:30N 52°28' E 004°37'2 3.3
2018-Sep-21 22:03N 52°28' E 004°39'0 5.0
2018-Sep-21 22:00N 52°28' E 004°39'3 6.9
2018-Sep-21 21:30N 52°26' E 004°44'2 4.4
2018-Sep-21 21:03N 52°25' E 004°46'0 2.1
2018-Sep-21 20:59N 52°24' E 004°46'0 0.0
2018-Sep-21 20:29N 52°24' E 004°46'0 0.0
2018-Sep-21 20:02N 52°24' E 004°46'0 0.0
2018-Sep-21 19:59N 52°24' E 004°46'0 0.0
2018-Sep-21 19:23N 52°24' E 004°46'0 0.0
2018-Sep-21 19:02N 52°24' E 004°46'0 0.0
2018-Sep-21 18:59N 52°24' E 004°46'0 0.0
2018-Sep-21 18:29N 52°24' E 004°46'0 0.0
2018-Sep-21 18:02N 52°24' E 004°46'0 0.0
2018-Sep-21 17:59N 52°24' E 004°46'0 0.0
2018-Sep-21 17:29N 52°24' E 004°46'0 0.0
2018-Sep-21 17:02N 52°24' E 004°46'0 0.0
2018-Sep-21 16:59N 52°24' E 004°46'0 0.0
2018-Sep-21 16:29N 52°24' E 004°46'0 0.0
2018-Sep-21 16:02N 52°24' E 004°46'0 0.0
2018-Sep-21 15:59N 52°24' E 004°46'0 0.0
2018-Sep-21 15:29N 52°24' E 004°46'0 0.0
2018-Sep-21 15:02N 52°24' E 004°46'0 0.0
2018-Sep-21 14:59N 52°24' E 004°46'0 0.0
2018-Sep-21 13:59N 52°24' E 004°46'0 0.0
2018-Sep-21 13:26N 52°24' E 004°46'0 0.0
2018-Sep-21 13:02N 52°24' E 004°46'0 0.0
2018-Sep-21 12:59N 52°24' E 004°46'0 0.0
2018-Sep-21 12:29N 52°24' E 004°46'0 0.0
2018-Sep-21 12:02N 52°24' E 004°46'0 0.1
2018-Sep-21 11:59N 52°24' E 004°46'0 0.0
2018-Sep-21 11:29N 52°24' E 004°46'0 0.0
2018-Sep-21 11:02N 52°24' E 004°46'0 0.0
2018-Sep-21 10:59N 52°24' E 004°46'0 0.0
2018-Sep-21 10:29N 52°24' E 004°46'0 0.0
2018-Sep-21 10:02N 52°24' E 004°46'0 0.1
2018-Sep-21 09:59N 52°24' E 004°46'0 0.0
2018-Sep-21 09:26N 52°24' E 004°46'0 0.0
2018-Sep-21 09:02N 52°24' E 004°46'0 0.1
2018-Sep-21 08:59N 52°24' E 004°46'0 0.0
2018-Sep-21 08:29N 52°24' E 004°46'0 0.0
2018-Sep-21 08:02N 52°24' E 004°46'0 0.0
2018-Sep-21 07:59N 52°24' E 004°46'0 0.0
2018-Sep-21 07:29N 52°24' E 004°46'0 0.0
2018-Sep-21 07:02N 52°24' E 004°46'0 0.0
2018-Sep-21 06:59N 52°24' E 004°46'0 0.0
2018-Sep-21 06:29N 52°24' E 004°46'0 0.0
2018-Sep-21 06:02N 52°24' E 004°46'0 0.0
2018-Sep-21 05:53N 52°24' E 004°46'0 0.0
2018-Sep-21 05:26N 52°24' E 004°46'0 0.0
2018-Sep-21 05:02N 52°24' E 004°46'0 0.0
2018-Sep-21 04:59N 52°24' E 004°46'0 0.0
2018-Sep-21 04:29N 52°24' E 004°46'0 0.0
2018-Sep-21 04:02N 52°24' E 004°46'0 0.0
2018-Sep-21 03:56N 52°24' E 004°46'0 0.0
2018-Sep-21 03:29N 52°24' E 004°46'0 0.0
2018-Sep-21 03:02N 52°24' E 004°46'0 0.1
2018-Sep-21 02:59N 52°24' E 004°46'0 0.0
2018-Sep-21 02:29N 52°24' E 004°46'0 0.0
2018-Sep-21 02:02N 52°24' E 004°46'0 0.0
2018-Sep-21 01:59N 52°24' E 004°46'0 0.0
2018-Sep-21 01:29N 52°24' E 004°46'0 0.0
2018-Sep-21 00:59N 52°24' E 004°46'0 0.0
2018-Sep-21 00:29N 52°24' E 004°46'0 0.0
2018-Sep-21 00:02N 52°24' E 004°46'0 0.0
2018-Sep-20 23:59N 52°24' E 004°46'0 0.0
2018-Sep-20 23:29N 52°24' E 004°46'0 0.0
2018-Sep-20 23:02N 52°24' E 004°46'0 0.0
2018-Sep-20 22:59N 52°24' E 004°46'0 0.0
2018-Sep-20 22:29N 52°24' E 004°46'0 0.0
2018-Sep-20 22:02N 52°24' E 004°46'0 0.0
2018-Sep-20 21:59N 52°24' E 004°46'0 0.0
2018-Sep-20 21:26N 52°24' E 004°46'0 0.0
2018-Sep-20 21:02N 52°24' E 004°46'0 0.1
2018-Sep-20 20:59N 52°24' E 004°46'0 0.0
2018-Sep-20 20:26N 52°24' E 004°46'0 0.0
2018-Sep-20 20:02N 52°24' E 004°46'0 0.1
2018-Sep-20 19:59N 52°24' E 004°46'0 0.0
2018-Sep-20 19:26N 52°24' E 004°46'0 0.0
2018-Sep-20 19:02N 52°24' E 004°46'0 0.1
2018-Sep-20 18:56N 52°24' E 004°46'0 0.0
2018-Sep-20 18:29N 52°24' E 004°46'0 0.0
2018-Sep-20 18:02N 52°24' E 004°46'0 0.0
2018-Sep-20 17:59N 52°24' E 004°46'0 0.0
2018-Sep-20 17:29N 52°24' E 004°46'0 0.0
2018-Sep-20 17:02N 52°24' E 004°46'0 0.0
2018-Sep-20 16:59N 52°24' E 004°46'0 0.0
2018-Sep-20 16:29N 52°24' E 004°46'0 0.0
2018-Sep-20 15:59N 52°24' E 004°46'0 0.0
2018-Sep-20 15:29N 52°24' E 004°46'0 0.0
2018-Sep-20 15:02N 52°24' E 004°46'0 0.1
2018-Sep-20 14:59N 52°24' E 004°46'0 0.0
2018-Sep-20 14:02N 52°24' E 004°46'0 0.0
2018-Sep-20 13:59N 52°24' E 004°46'0 0.0
2018-Sep-20 13:29N 52°24' E 004°46'0 0.0
2018-Sep-20 13:02N 52°24' E 004°46'0 0.1
2018-Sep-20 12:59N 52°24' E 004°46'0 0.0
2018-Sep-20 12:29N 52°24' E 004°46'0 0.0
2018-Sep-20 12:02N 52°24' E 004°46'0 0.2
2018-Sep-20 11:59N 52°24' E 004°46'0 0.0
2018-Sep-20 11:29N 52°24' E 004°46'0 0.0
2018-Sep-20 11:02N 52°24' E 004°46'0 0.1
2018-Sep-20 10:59N 52°24' E 004°46'0 0.0
2018-Sep-20 10:29N 52°24' E 004°46'0 0.0
2018-Sep-20 10:02N 52°24' E 004°46'0 0.1
2018-Sep-20 09:59N 52°24' E 004°46'0 0.0
2018-Sep-20 09:29N 52°24' E 004°46'0 0.0
2018-Sep-20 09:02N 52°24' E 004°46'0 0.1
2018-Sep-20 08:59N 52°24' E 004°46'0 0.0
2018-Sep-20 08:29N 52°24' E 004°46'0 0.0
2018-Sep-20 08:02N 52°24' E 004°46'0 0.0
2018-Sep-20 07:56N 52°24' E 004°46'0 0.0
2018-Sep-20 07:29N 52°24' E 004°46'0 0.0
2018-Sep-20 06:59N 52°24' E 004°46'0 0.0
2018-Sep-20 06:29N 52°24' E 004°46'0 0.0
2018-Sep-20 06:02N 52°24' E 004°46'0 0.0
2018-Sep-20 05:56N 52°24' E 004°46'0 0.0
2018-Sep-20 05:29N 52°24' E 004°46'0 0.0
2018-Sep-20 05:02N 52°24' E 004°46'0 0.1
2018-Sep-20 04:59N 52°24' E 004°46'0 0.0
2018-Sep-20 04:29N 52°24' E 004°46'0 0.0
2018-Sep-20 04:02N 52°24' E 004°46'0 0.1
2018-Sep-20 03:59N 52°24' E 004°46'0 0.0
2018-Sep-20 03:29N 52°24' E 004°46'0 0.0
2018-Sep-20 03:02N 52°24' E 004°46'0 0.1
2018-Sep-20 02:59N 52°24' E 004°46'0 0.0
2018-Sep-20 02:29N 52°24' E 004°46'0 0.0
2018-Sep-20 02:02N 52°24' E 004°46'0 0.0
2018-Sep-20 01:59N 52°24' E 004°46'0 0.0
2018-Sep-20 01:29N 52°24' E 004°46'0 0.0
2018-Sep-20 01:02N 52°24' E 004°46'0 0.1
2018-Sep-20 00:59N 52°24' E 004°46'0 0.0
2018-Sep-20 00:29N 52°24' E 004°46'0 0.0
2018-Sep-20 00:02N 52°24' E 004°46'0 0.1
2018-Sep-19 23:59N 52°24' E 004°46'0 0.0
2018-Sep-19 23:29N 52°24' E 004°46'0 0.0
2018-Sep-19 23:02N 52°24' E 004°46'0 0.0
2018-Sep-19 22:59N 52°24' E 004°46'0 0.0
2018-Sep-19 22:29N 52°24' E 004°46'0 0.0
2018-Sep-19 22:02N 52°24' E 004°46'0 0.0
2018-Sep-19 21:59N 52°24' E 004°46'0 0.0
2018-Sep-19 21:29N 52°24' E 004°46'0 0.0
2018-Sep-19 20:59N 52°24' E 004°46'0 0.0
2018-Sep-19 20:29N 52°24' E 004°46'0 0.0
2018-Sep-19 20:02N 52°24' E 004°46'0 0.0
2018-Sep-19 19:59N 52°24' E 004°46'0 0.0
2018-Sep-19 19:29N 52°24' E 004°46'0 0.0
2018-Sep-19 19:02N 52°24' E 004°46'0 0.0
2018-Sep-19 18:59N 52°24' E 004°46'0 0.0
2018-Sep-19 18:29N 52°24' E 004°46'0 0.0
2018-Sep-19 18:02N 52°24' E 004°46'0 0.0
2018-Sep-19 17:59N 52°24' E 004°46'0 0.0
2018-Sep-19 17:29N 52°24' E 004°46'0 0.0
2018-Sep-19 17:02N 52°24' E 004°46'0 0.1
2018-Sep-19 16:59N 52°24' E 004°46'0 0.0
2018-Sep-19 16:26N 52°24' E 004°46'0 0.0
2018-Sep-19 16:02N 52°24' E 004°46'0 0.0
2018-Sep-19 15:56N 52°24' E 004°46'0 0.0
2018-Sep-19 15:29N 52°24' E 004°46'0 0.0
2018-Sep-19 15:02N 52°24' E 004°46'0 0.0
2018-Sep-19 14:59N 52°24' E 004°46'0 0.0
2018-Sep-19 14:29N 52°24' E 004°46'0 0.0
2018-Sep-19 13:29N 52°24' E 004°46'0 0.0
2018-Sep-19 13:02N 52°24' E 004°46'0 0.0
2018-Sep-19 12:59N 52°24' E 004°46'0 0.0
2018-Sep-19 12:29N 52°24' E 004°46'0 0.0
2018-Sep-19 12:02N 52°24' E 004°46'0 2.0
2018-Sep-19 11:59N 52°24' E 004°47'0 0.1
2018-Sep-19 11:29N 52°24' E 004°47'0 0.2
2018-Sep-19 11:02N 52°24' E 004°47'0 0.1
2018-Sep-19 10:59N 52°24' E 004°47'0 0.1
2018-Sep-19 10:29N 52°24' E 004°47'0 0.2
2018-Sep-19 10:02N 52°24' E 004°46'0 0.8
2018-Sep-19 09:59N 52°24' E 004°46'0 0.0
2018-Sep-19 09:29N 52°24' E 004°46'0 0.0
2018-Sep-19 09:02N 52°24' E 004°46'0 0.0
2018-Sep-19 08:59N 52°24' E 004°46'0 0.0
2018-Sep-19 08:29N 52°24' E 004°46'0 0.0
2018-Sep-19 08:02N 52°24' E 004°46'0 0.0
2018-Sep-19 07:59N 52°24' E 004°46'0 0.0
2018-Sep-19 07:29N 52°24' E 004°46'0 0.0
2018-Sep-19 07:02N 52°24' E 004°46'0 0.0
2018-Sep-19 06:59N 52°24' E 004°46'0 0.0
2018-Sep-19 06:29N 52°24' E 004°46'0 0.0
2018-Sep-19 05:59N 52°24' E 004°46'0 0.0
2018-Sep-19 05:29N 52°24' E 004°46'0 0.0
2018-Sep-19 05:02N 52°24' E 004°46'0 0.0
2018-Sep-19 04:56N 52°24' E 004°46'0 0.0
2018-Sep-19 04:29N 52°24' E 004°46'0 0.0
2018-Sep-19 04:02N 52°24' E 004°46'0 0.1
2018-Sep-19 03:59N 52°24' E 004°46'0 0.0
2018-Sep-19 03:29N 52°24' E 004°46'0 0.0
2018-Sep-19 03:02N 52°24' E 004°46'0 0.0
2018-Sep-19 02:59N 52°24' E 004°46'0 0.0
2018-Sep-19 02:26N 52°24' E 004°46'0 0.0
2018-Sep-19 01:59N 52°24' E 004°46'0 0.0
2018-Sep-19 01:29N 52°24' E 004°46'0 0.0
2018-Sep-19 01:02N 52°24' E 004°46'0 0.1
2018-Sep-19 00:59N 52°24' E 004°46'0 0.0
2018-Sep-19 00:29N 52°24' E 004°46'0 0.0
2018-Sep-19 00:02N 52°24' E 004°46'0 0.1
2018-Sep-18 23:56N 52°24' E 004°46'0 0.0
2018-Sep-18 23:29N 52°24' E 004°46'0 0.0
2018-Sep-18 23:02N 52°24' E 004°46'0 0.0
2018-Sep-18 22:59N 52°24' E 004°46'0 0.0
2018-Sep-18 22:29N 52°24' E 004°46'0 0.0
2018-Sep-18 22:02N 52°24' E 004°46'0 0.1
2018-Sep-18 21:59N 52°24' E 004°46'0 0.0
2018-Sep-18 21:29N 52°24' E 004°46'0 0.0
2018-Sep-18 21:02N 52°24' E 004°46'0 0.0
2018-Sep-18 20:59N 52°24' E 004°46'0 0.0
2018-Sep-18 20:29N 52°24' E 004°46'0 0.0
2018-Sep-18 20:02N 52°24' E 004°46'0 0.0
2018-Sep-18 19:59N 52°24' E 004°46'0 0.0
2018-Sep-18 19:29N 52°24' E 004°46'0 0.0
2018-Sep-18 19:02N 52°24' E 004°46'0 0.0
2018-Sep-18 18:59N 52°24' E 004°46'0 0.0
2018-Sep-18 18:29N 52°24' E 004°46'0 0.0
2018-Sep-18 18:02N 52°24' E 004°46'0 0.0
2018-Sep-18 17:59N 52°24' E 004°46'0 0.0
2018-Sep-18 17:29N 52°24' E 004°46'0 0.0
2018-Sep-18 17:02N 52°24' E 004°46'0 0.0
2018-Sep-18 16:59N 52°24' E 004°46'0 0.0
2018-Sep-18 16:29N 52°24' E 004°46'0 0.0
2018-Sep-18 16:02N 52°24' E 004°46'0 0.0
2018-Sep-18 15:59N 52°24' E 004°46'0 0.0
2018-Sep-18 15:29N 52°24' E 004°46'0 0.0
2018-Sep-18 15:02N 52°24' E 004°46'0 0.0
2018-Sep-18 14:59N 52°24' E 004°46'0 0.0
2018-Sep-18 14:02N 52°24' E 004°46'0 0.0
2018-Sep-18 13:56N 52°24' E 004°46'0 0.0
2018-Sep-18 13:29N 52°24' E 004°46'0 0.0
2018-Sep-18 12:56N 52°24' E 004°46'0 0.0
2018-Sep-18 12:29N 52°24' E 004°46'0 0.0
2018-Sep-18 12:02N 52°24' E 004°46'0 0.1
2018-Sep-18 11:59N 52°24' E 004°46'0 0.0
2018-Sep-18 11:26N 52°24' E 004°46'0 0.0
2018-Sep-18 10:59N 52°24' E 004°46'0 0.0
2018-Sep-18 10:26N 52°24' E 004°46'0 0.0
2018-Sep-18 10:02N 52°24' E 004°46'0 0.1
2018-Sep-18 09:59N 52°24' E 004°46'  

Dump ship's entire track history